Time;durP1;ratioP1;P1;durP2;ratioP2;P2;SDS_P1;SDS_P2;PMS_P1;PMS_P2;Temp;Humidity;BMP_temperature;BMP_pressure;BME280_temperature;BME280_humidity;BME280_pressure;Samples;Min_cycle;Max_cycle;Signal;HPM_P1;HPM_P2
2023/07/12 00:00:22;;;;;;;;;19.00;15.00;;;;;14.34;100.00;98261.38;4899842;28;102318;-79
2023/07/12 00:02:49;;;;;;;;;14.75;14.50;;;;;14.35;100.00;98258.44;4903009;28;102373;-78
2023/07/12 00:05:17;;;;;;;;;11.50;11.50;;;;;14.42;100.00;98242.84;4898184;28;103991;-79
2023/07/12 00:07:45;;;;;;;;;9.75;8.75;;;;;14.33;100.00;98227.91;4897102;28;102267;-79
2023/07/12 00:10:21;;;;;;;;;9.00;8.00;;;;;14.41;100.00;98237.69;4914144;28;104111;-79
2023/07/12 00:12:49;;;;;;;;;8.50;8.00;;;;;14.47;100.00;98223.13;4909626;28;103047;-78
2023/07/12 00:15:23;;;;;;;;;8.75;7.50;;;;;14.58;100.00;98244.06;4915576;28;104396;-79
2023/07/12 00:17:52;;;;;;;;;7.00;6.00;;;;;14.65;99.99;98252.94;4918682;28;102300;-78
2023/07/12 00:20:27;;;;;;;;;7.00;6.00;;;;;14.54;100.00;98232.00;4918549;28;102256;-78
2023/07/12 00:22:55;;;;;;;;;10.75;10.00;;;;;14.36;100.00;98243.81;4915931;28;102051;-79
2023/07/12 00:25:27;;;;;;;;;10.00;9.00;;;;;14.33;100.00;98241.50;4915902;28;104065;-80
2023/07/12 00:27:54;;;;;;;;;9.50;8.75;;;;;14.13;100.00;98208.38;4885896;28;102465;-79
2023/07/12 00:30:27;;;;;;;;;16.50;13.00;;;;;14.19;100.00;98226.47;4911263;28;103008;-79
2023/07/12 00:32:57;;;;;;;;;13.25;12.75;;;;;14.18;100.00;98227.53;4902504;28;103635;-80
2023/07/12 00:35:26;;;;;;;;;13.50;12.50;;;;;14.19;100.00;98231.91;4909663;28;104285;-81
2023/07/12 00:38:00;;;;;;;;;10.75;10.00;;;;;14.28;100.00;98225.06;4903818;28;102388;-79
2023/07/12 00:40:36;;;;;;;;;10.75;9.75;;;;;14.29;100.00;98213.97;4908462;28;103688;-79
2023/07/12 00:43:16;;;;;;;;;9.00;9.00;;;;;14.36;100.00;98210.34;4897192;28;105477;-79
2023/07/12 00:45:46;;;;;;;;;7.50;7.00;;;;;14.16;100.00;98176.09;4909203;28;108519;-79
2023/07/12 00:48:14;;;;;;;;;8.00;7.00;;;;;14.40;100.00;98211.53;4909641;28;102125;-79
2023/07/12 00:50:42;;;;;;;;;5.00;5.00;;;;;14.42;100.00;98206.66;4912816;28;102692;-80
2023/07/12 00:53:23;;;;;;;;;6.75;6.75;;;;;14.37;100.00;98211.97;4910414;28;102379;-79
2023/07/12 00:56:06;;;;;;;;;6.00;6.00;;;;;14.45;100.00;98219.81;4907787;28;109066;-79
2023/07/12 00:58:45;;;;;;;;;9.00;7.00;;;;;14.46;99.75;98207.84;4910141;28;102301;-79
2023/07/12 01:01:14;;;;;;;;;6.25;5.00;;;;;14.36;99.27;98185.88;4915372;28;102420;-79
2023/07/12 01:03:44;;;;;;;;;7.50;7.25;;;;;14.30;100.00;98185.72;4917089;28;104645;-79
2023/07/12 01:06:16;;;;;;;;;6.75;6.75;;;;;14.26;100.00;98192.69;4914918;28;104553;-79
2023/07/12 01:08:44;;;;;;;;;7.00;5.00;;;;;14.39;100.00;98201.69;4909175;28;103877;-80
2023/07/12 01:11:14;;;;;;;;;6.75;5.00;;;;;14.37;99.62;98190.22;4913231;28;102219;-79
2023/07/12 01:13:43;;;;;;;;;5.25;4.50;;;;;14.47;99.78;98213.06;4912464;28;105528;-79
2023/07/12 01:16:15;;;;;;;;;5.00;5.00;;;;;14.49;99.46;98208.22;4908772;28;104008;-79
2023/07/12 01:18:42;;;;;;;;;3.00;3.00;;;;;14.49;98.52;98208.22;4911972;28;102707;-79
2023/07/12 01:21:14;;;;;;;;;5.75;5.00;;;;;14.45;97.48;98201.59;4892534;28;102080;-79
2023/07/12 01:23:43;;;;;;;;;4.00;4.00;;;;;14.43;98.20;98194.72;4914151;28;104017;-79
2023/07/12 01:26:21;;;;;;;;;6.25;5.50;;;;;14.16;100.00;98178.00;4908291;28;104218;-79
2023/07/12 01:28:51;;;;;;;;;5.50;5.50;;;;;14.18;100.00;98194.91;4911171;28;102433;-79
2023/07/12 01:31:19;;;;;;;;;4.50;4.50;;;;;14.12;99.69;98193.97;4903301;28;105709;-79
2023/07/12 01:33:46;;;;;;;;;6.25;5.00;;;;;14.17;100.00;98185.09;4908340;28;103357;-79
2023/07/12 01:36:14;;;;;;;;;5.75;5.75;;;;;13.93;100.00;98176.06;4910835;28;103991;-79
2023/07/12 01:38:41;;;;;;;;;7.00;6.00;;;;;13.78;100.00;98154.75;4913577;28;102446;-78
2023/07/12 01:41:09;;;;;;;;;5.25;4.25;;;;;14.00;100.00;98178.69;4879943;28;102410;-79
2023/07/12 01:43:37;;;;;;;;;5.00;5.00;;;;;13.94;100.00;98180.44;4910303;28;102452;-80
2023/07/12 01:46:05;;;;;;;;;4.00;3.00;;;;;13.96;100.00;98178.28;4913418;28;103997;-79
2023/07/12 01:48:32;;;;;;;;;2.75;2.75;;;;;13.97;100.00;98179.13;4921667;28;105165;-80
2023/07/12 01:51:00;;;;;;;;;4.50;3.25;;;;;13.98;100.00;98173.47;4919255;28;104704;-78
2023/07/12 01:53:28;;;;;;;;;4.50;4.50;;;;;14.01;100.00;98158.56;4916379;28;102459;-78
2023/07/12 01:55:55;;;;;;;;;5.00;4.00;;;;;13.95;100.00;98154.91;4915130;28;103973;-79
2023/07/12 01:58:22;;;;;;;;;5.00;5.00;;;;;13.91;100.00;98156.44;4915579;28;103304;-79
2023/07/12 02:00:50;;;;;;;;;3.00;3.00;;;;;13.92;100.00;98162.69;4914480;28;106568;-78
2023/07/12 02:03:17;;;;;;;;;4.25;4.25;;;;;13.78;100.00;98133.00;4916345;28;103221;-79
2023/07/12 02:05:45;;;;;;;;;7.25;5.75;;;;;13.67;100.00;98141.97;4923200;28;105661;-78
2023/07/12 02:08:13;;;;;;;;;4.50;4.50;;;;;13.67;100.00;98138.41;4919175;28;102027;-78
2023/07/12 02:10:41;;;;;;;;;5.25;5.25;;;;;13.61;100.00;98133.91;4914882;28;104225;-79
2023/07/12 02:13:08;;;;;;;;;7.75;7.75;;;;;13.61;100.00;98136.63;4923969;28;103588;-78
2023/07/12 02:15:36;;;;;;;;;5.25;5.00;;;;;13.69;100.00;98134.41;4899941;28;103992;-78
2023/07/12 02:18:03;;;;;;;;;7.00;7.00;;;;;13.70;100.00;98121.66;4902989;28;105420;-79
2023/07/12 02:20:30;;;;;;;;;6.25;6.25;;;;;13.73;100.00;98121.19;4904241;28;102083;-79
2023/07/12 02:22:57;;;;;;;;;6.00;5.50;;;;;13.76;100.00;98118.84;4900529;28;102701;-79
2023/07/12 02:25:25;;;;;;;;;5.75;5.00;;;;;13.76;100.00;98118.00;4923118;28;104497;-79
2023/07/12 02:27:52;;;;;;;;;5.75;4.25;;;;;13.72;100.00;98119.53;4907342;28;104311;-79
2023/07/12 02:30:27;;;;;;;;;2.75;2.75;;;;;13.48;100.00;98077.91;4919400;28;102032;-78
2023/07/12 02:32:55;;;;;;;;;5.50;5.00;;;;;13.74;100.00;98120.13;4912890;28;102312;-80
2023/07/12 02:35:31;;;;;;;;;4.00;4.00;;;;;13.72;100.00;98120.38;4920481;28;104112;-79
2023/07/12 02:37:59;;;;;;;;;6.00;6.00;;;;;13.40;100.00;98092.66;4916861;28;102746;-79
2023/07/12 02:40:28;;;;;;;;;5.50;5.00;;;;;13.61;100.00;98109.44;4906101;28;104259;-78
2023/07/12 02:42:55;;;;;;;;;4.50;4.00;;;;;13.53;100.00;98094.31;4915458;28;102019;-79
2023/07/12 02:45:24;;;;;;;;;4.25;3.75;;;;;13.64;100.00;98101.69;4914277;28;103664;-79
2023/07/12 02:47:51;;;;;;;;;7.50;7.50;;;;;13.29;100.00;98079.84;4920560;28;103511;-79
2023/07/12 02:50:19;;;;;;;;;7.00;6.00;;;;;13.45;100.00;98085.69;4912823;28;102053;-79
2023/07/12 02:52:46;;;;;;;;;7.25;5.50;;;;;13.44;100.00;98073.16;4921450;28;102287;-79
2023/07/12 02:55:14;;;;;;;;;5.25;4.50;;;;;13.54;100.00;98076.16;4913908;28;104313;-79
2023/07/12 02:57:41;;;;;;;;;6.00;5.25;;;;;13.49;100.00;98057.00;4919358;28;102528;-80
2023/07/12 03:00:09;;;;;;;;;10.25;7.00;;;;;13.49;100.00;98071.41;4916883;28;102010;-80
2023/07/12 03:02:36;;;;;;;;;8.00;8.00;;;;;13.48;100.00;98074.34;4913050;28;105477;-81
2023/07/12 03:05:03;;;;;;;;;5.75;4.50;;;;;13.37;100.00;98060.50;4914046;28;104028;-80
2023/07/12 03:07:30;;;;;;;;;4.25;4.25;;;;;13.55;100.00;98078.63;4902152;28;102604;-78
2023/07/12 03:09:58;;;;;;;;;4.00;4.00;;;;;13.45;100.00;98058.53;4916825;28;102701;-78
2023/07/12 03:12:25;;;;;;;;;3.25;3.25;;;;;13.63;100.00;98085.63;4916126;28;105806;-78
2023/07/12 03:14:53;;;;;;;;;4.00;3.00;;;;;13.67;100.00;98087.63;4921250;28;104317;-78
2023/07/12 03:17:20;;;;;;;;;4.00;3.00;;;;;13.75;100.00;98084.56;4919459;28;105648;-79
2023/07/12 03:19:47;;;;;;;;;2.75;2.75;;;;;13.61;100.00;98058.66;4913142;28;102340;-79
2023/07/12 03:22:14;;;;;;;;;3.00;3.00;;;;;13.84;100.00;98085.06;4919786;28;102002;-78
2023/07/12 03:24:41;;;;;;;;;2.25;2.25;;;;;13.87;100.00;98081.84;4918900;28;104102;-78
2023/07/12 03:27:08;;;;;;;;;1.00;1.00;;;;;13.95;100.00;98081.53;4912998;28;103113;-77
2023/07/12 03:29:35;;;;;;;;;2.50;2.00;;;;;13.89;100.00;98077.03;4922266;28;102446;-78
2023/07/12 03:32:04;;;;;;;;;2.25;2.25;;;;;13.89;100.00;98068.88;4918538;28;102777;-79
2023/07/12 03:34:31;;;;;;;;;2.00;2.00;;;;;14.09;100.00;98090.28;4924162;28;108926;-79
2023/07/12 03:37:00;;;;;;;;;4.75;4.00;;;;;14.13;100.00;98088.75;4900486;28;102528;-78
2023/07/12 03:39:27;;;;;;;;;3.00;2.50;;;;;14.17;100.00;98079.88;4913994;28;107284;-79
2023/07/12 03:41:55;;;;;;;;;4.00;4.00;;;;;14.20;100.00;98081.28;4916900;28;102435;-78
2023/07/12 03:44:22;;;;;;;;;2.75;2.75;;;;;14.32;100.00;98085.66;4915201;28;104027;-79
2023/07/12 03:46:49;;;;;;;;;3.00;3.00;;;;;14.35;100.00;98078.94;4910243;28;102018;-79
2023/07/12 03:49:16;;;;;;;;;2.00;2.00;;;;;14.49;100.00;98084.97;4913351;28;102170;-78
2023/07/12 03:51:43;;;;;;;;;2.75;2.75;;;;;14.39;100.00;98057.53;4912363;28;102277;-79
2023/07/12 03:54:10;;;;;;;;;3.00;2.50;;;;;14.62;100.00;98074.66;4895601;28;103986;-80
2023/07/12 03:56:37;;;;;;;;;4.25;4.00;;;;;14.78;100.00;98073.06;4915064;28;101987;-80
2023/07/12 03:59:06;;;;;;;;;6.00;6.00;;;;;14.75;100.00;98057.25;4920889;28;102305;-79
2023/07/12 04:01:33;;;;;;;;;6.00;6.00;;;;;14.87;100.00;98057.19;4918162;28;102399;-80
2023/07/12 04:04:00;;;;;;;;;6.00;5.25;;;;;15.01;100.00;98059.41;4911192;28;104346;-80
2023/07/12 04:06:27;;;;;;;;;10.00;10.00;;;;;14.85;100.00;98023.97;4915823;28;102592;-80
2023/07/12 04:08:55;;;;;;;;;12.00;11.25;;;;;15.09;100.00;98045.38;4913724;28;102321;-80
2023/07/12 04:11:30;;;;;;;;;11.00;11.00;;;;;15.32;100.00;98063.53;4915192;28;107432;-79
2023/07/12 04:13:59;;;;;;;;;9.75;8.75;;;;;15.48;100.00;98056.47;4915512;28;104244;-79
2023/07/12 04:16:26;;;;;;;;;17.25;13.00;;;;;15.55;99.39;98048.97;4918322;28;103005;-79
2023/07/12 04:18:53;;;;;;;;;10.00;9.75;;;;;15.74;100.00;98053.13;4895457;28;102121;-79
2023/07/12 04:21:21;;;;;;;;;12.75;11.00;;;;;15.69;98.06;98028.50;4914216;28;102423;-79
2023/07/12 04:23:49;;;;;;;;;9.00;9.00;;;;;15.97;97.83;98055.69;4915260;28;104394;-79
2023/07/12 04:26:17;;;;;;;;;8.50;8.50;;;;;16.17;98.28;98051.59;4902101;28;102142;-79
2023/07/12 04:28:49;;;;;;;;;11.00;11.00;;;;;16.25;97.60;98051.19;4918224;28;102410;-78
2023/07/12 04:31:19;;;;;;;;;11.75;11.75;;;;;16.27;95.60;98028.03;4900561;28;103576;-78
2023/07/12 04:33:46;;;;;;;;;12.50;12.00;;;;;16.44;96.26;98038.91;4898145;28;104134;-78
2023/07/12 04:36:16;;;;;;;;;12.25;10.00;;;;;16.60;97.97;98021.69;4917041;28;102478;-79
2023/07/12 04:38:44;;;;;;;;;9.00;9.00;;;;;16.92;97.89;98039.03;4917775;28;107049;-79
2023/07/12 04:41:11;;;;;;;;;7.25;7.25;;;;;17.08;97.17;98033.72;4917111;28;104132;-80
2023/07/12 04:43:39;;;;;;;;;7.50;6.75;;;;;17.22;95.91;98037.69;4904337;28;103668;-79
2023/07/12 04:46:06;;;;;;;;;5.75;5.75;;;;;17.32;93.64;98022.25;4911984;28;105244;-79
2023/07/12 04:48:33;;;;;;;;;5.25;5.00;;;;;17.65;95.21;98051.25;4901915;28;102394;-78
2023/07/12 04:51:03;;;;;;;;;7.00;6.75;;;;;17.64;91.89;98038.69;4902277;28;102336;-78
2023/07/12 04:53:32;;;;;;;;;2.25;2.00;;;;;17.95;93.49;98034.31;4912093;28;104407;-78
2023/07/12 04:55:59;;;;;;;;;5.33;5.00;;;;;18.33;88.33;98030.44;4913807;28;102115;-78
2023/07/12 04:58:27;;;;;;;;;5.00;4.67;;;;;18.70;87.15;98036.69;4920088;28;102291;-79
2023/07/12 05:00:55;;;;;;;;;4.00;4.00;;;;;19.02;85.16;98027.50;4922940;28;102304;-79
2023/07/12 05:03:24;;;;;;;;;4.33;4.00;;;;;19.31;85.08;98014.16;4879772;28;104306;-79
2023/07/12 05:05:52;;;;;;;;;4.00;3.67;;;;;19.44;85.10;98010.91;4924443;28;102059;-79
2023/07/12 05:08:19;;;;;;;;;6.00;6.00;;;;;19.63;84.18;97989.28;4900174;28;102478;-79
2023/07/12 05:10:46;;;;;;;;;6.33;6.00;;;;;19.88;86.62;97994.75;4920304;28;102606;-80
2023/07/12 05:13:13;;;;;;;;;7.00;7.00;;;;;19.65;80.41;98000.78;4923519;28;104484;-80
2023/07/12 05:15:40;;;;;;;;;11.67;10.00;;;;;19.96;85.59;97994.19;4923444;28;102247;-80
2023/07/12 05:18:07;;;;;;;;;10.00;9.33;;;;;20.29;86.71;98001.00;4923134;28;102526;-79
2023/07/12 05:20:36;;;;;;;;;6.67;6.67;;;;;20.41;81.44;97988.63;4908694;28;102456;-79
2023/07/12 05:23:03;;;;;;;;;9.00;7.00;;;;;20.25;77.88;97961.47;4923992;28;108715;-79
2023/07/12 05:25:30;;;;;;;;;7.33;7.33;;;;;20.44;82.62;97990.81;4926839;28;102236;-79
2023/07/12 05:27:58;;;;;;;;;2.67;2.67;;;;;20.58;83.20;97995.75;4924026;28;102269;-80
2023/07/12 05:30:25;;;;;;;;;4.33;4.33;;;;;20.84;83.19;97994.53;4920069;28;103778;-79
2023/07/12 05:32:52;;;;;;;;;3.67;3.67;;;;;21.09;76.00;97994.38;4895578;28;103519;-84
2023/07/12 05:35:19;;;;;;;;;2.33;2.33;;;;;21.20;73.15;98003.44;4919798;28;102188;-84
2023/07/12 05:37:49;;;;;;;;;3.00;3.00;;;;;21.07;75.12;97993.88;4918070;28;101996;-87
2023/07/12 05:40:16;;;;;;;;;3.67;2.00;;;;;21.16;75.09;98025.19;4918228;28;105490;-84
2023/07/12 05:42:45;;;;;;;;;2.33;2.33;;;;;21.13;76.18;98020.22;4918590;28;102700;-81
2023/07/12 05:45:13;;;;;;;;;2.00;2.00;;;;;20.91;75.16;97990.34;4919944;28;101968;-80
2023/07/12 05:47:46;;;;;;;;;2.00;2.00;;;;;21.11;76.49;98027.94;4917404;28;101982;-79
2023/07/12 05:50:16;;;;;;;;;1.00;1.00;;;;;21.05;79.17;98015.31;4917953;28;102113;-79
2023/07/12 05:52:44;;;;;;;;;2.00;2.00;;;;;21.07;77.30;98010.34;4892729;28;104253;-80
2023/07/12 05:55:20;;;;;;;;;2.67;2.00;;;;;21.05;77.82;97998.81;4915755;28;101965;-80
2023/07/12 05:57:48;;;;;;;;;2.00;2.00;;;;;21.23;79.69;98013.84;4914274;28;102569;-81
2023/07/12 06:00:17;;;;;;;;;2.00;2.00;;;;;21.27;76.69;98012.19;4921946;28;102970;-78
2023/07/12 06:02:44;;;;;;;;;2.00;2.00;;;;;21.32;78.95;98012.97;4919655;28;108415;-78
2023/07/12 06:05:11;;;;;;;;;4.00;4.00;;;;;21.53;76.43;98030.16;4922829;28;102231;-78
2023/07/12 06:07:38;;;;;;;;;2.33;2.33;;;;;21.56;74.93;98028.78;4918319;28;102578;-79
2023/07/12 06:10:06;;;;;;;;;3.33;2.67;;;;;21.61;75.75;98020.50;4923943;28;103517;-79
2023/07/12 06:12:33;;;;;;;;;3.67;3.00;;;;;21.52;75.14;98020.28;4920652;28;108612;-78
2023/07/12 06:15:00;;;;;;;;;3.00;3.00;;;;;21.60;75.58;98025.19;4920980;28;104950;-79
2023/07/12 06:17:29;;;;;;;;;4.00;4.00;;;;;21.77;76.25;98022.00;4901965;28;102542;-80
2023/07/12 06:19:56;;;;;;;;;4.67;4.00;;;;;21.65;75.39;97994.03;4921352;28;102025;-80
2023/07/12 06:22:23;;;;;;;;;2.00;2.00;;;;;21.88;74.90;98009.81;4922330;28;103413;-79
2023/07/12 06:24:52;;;;;;;;;2.00;2.00;;;;;22.00;75.93;97993.78;4921979;28;102141;-80
2023/07/12 06:27:20;;;;;;;;;2.00;2.00;;;;;21.93;71.45;97963.00;4918103;28;102802;-81
2023/07/12 06:29:47;;;;;;;;;2.33;2.33;;;;;22.17;70.97;97982.31;4920981;28;106305;-80
2023/07/12 06:32:14;;;;;;;;;4.00;4.00;;;;;22.02;69.57;97961.25;4920607;28;104184;-79
2023/07/12 06:34:41;;;;;;;;;3.33;3.00;;;;;22.34;72.43;97979.09;4902613;28;102465;-81
2023/07/12 06:37:09;;;;;;;;;2.00;2.00;;;;;22.39;69.82;97971.59;4921662;28;102428;-79
2023/07/12 06:39:37;;;;;;;;;3.33;3.00;;;;;22.33;71.91;97941.66;4926018;28;107465;-84
2023/07/12 06:42:04;;;;;;;;;2.00;2.00;;;;;22.48;70.04;97935.97;4924521;28;104222;-81
2023/07/12 06:44:33;;;;;;;;;2.00;1.00;;;;;22.68;71.31;97958.59;4898986;28;102621;-81
2023/07/12 06:47:07;;;;;;;;;3.00;3.00;;;;;22.77;72.16;97964.31;4889831;28;101999;-81
2023/07/12 06:49:36;;;;;;;;;6.33;6.00;;;;;22.79;69.63;97956.53;4916232;28;102088;-81
2023/07/12 06:52:10;;;;;;;;;4.00;3.00;;;;;23.07;70.91;97961.13;4916278;28;108442;-83
2023/07/12 06:54:37;;;;;;;;;4.00;4.00;;;;;23.32;70.81;97971.00;4902474;28;102353;-82
2023/07/12 06:57:05;;;;;;;;;5.00;4.00;;;;;23.49;70.15;97954.75;4925022;28;102143;-82
2023/07/12 06:59:32;;;;;;;;;2.67;2.33;;;;;23.89;63.74;97956.00;4918317;28;102134;-82
2023/07/12 07:01:59;;;;;;;;;3.67;3.33;;;;;24.34;68.80;97962.66;4915031;28;104251;-81
2023/07/12 07:04:26;;;;;;;;;4.00;3.33;;;;;24.45;62.62;97964.09;4907074;28;102155;-81
2023/07/12 07:06:53;;;;;;;;;3.67;3.67;;;;;24.68;63.11;97961.41;4901635;28;102318;-82
2023/07/12 07:09:20;;;;;;;;;3.33;3.00;;;;;24.84;62.32;97955.28;4909745;28;104956;-82
2023/07/12 07:11:47;;;;;;;;;2.33;2.33;;;;;25.13;61.46;97965.19;4918263;28;104185;-82
2023/07/12 07:14:14;;;;;;;;;2.33;2.33;;;;;25.30;61.18;97930.22;4918383;28;102240;-82
2023/07/12 07:16:42;;;;;;;;;6.00;6.00;;;;;25.69;58.21;97937.88;4918302;28;102350;-83
2023/07/12 07:19:09;;;;;;;;;5.67;5.00;;;;;25.96;57.66;97944.38;4917702;28;102630;-82
2023/07/12 07:21:36;;;;;;;;;3.00;3.00;;;;;25.97;57.57;97882.31;4917720;28;108946;-83
2023/07/12 07:24:04;;;;;;;;;4.00;4.00;;;;;26.45;58.56;97910.09;4905522;28;102538;-82
2023/07/12 07:26:31;;;;;;;;;4.67;4.67;;;;;26.70;54.94;97923.22;4905932;28;102095;-83
2023/07/12 07:28:58;;;;;;;;;5.67;4.67;;;;;26.47;58.47;97892.00;4902560;28;102498;-82
2023/07/12 07:31:25;;;;;;;;;7.00;7.00;;;;;26.56;57.81;97911.44;4917670;28;103473;-82
2023/07/12 07:33:52;;;;;;;;;5.00;5.00;;;;;26.85;56.69;97914.47;4917165;28;102142;-82
2023/07/12 07:36:19;;;;;;;;;10.00;9.00;;;;;26.90;54.99;97899.63;4915348;28;102393;-83
2023/07/12 07:38:46;;;;;;;;;9.00;8.67;;;;;27.14;58.75;97913.88;4920686;28;104771;-83
2023/07/12 07:41:15;;;;;;;;;8.67;8.67;;;;;27.04;53.88;97905.84;4900345;28;110147;-82
2023/07/12 07:43:46;;;;;;;;;5.33;5.33;;;;;27.26;56.24;97911.25;4915841;28;102472;-81
2023/07/12 07:46:14;;;;;;;;;5.00;5.00;;;;;27.39;55.34;97917.78;4915600;28;102295;-82
2023/07/12 07:48:42;;;;;;;;;4.33;4.33;;;;;27.36;52.59;97916.50;4917634;28;102457;-80
2023/07/12 07:51:10;;;;;;;;;6.00;5.00;;;;;27.30;54.58;97931.66;4921837;28;104165;-82
2023/07/12 07:53:37;;;;;;;;;4.67;4.67;;;;;27.13;55.27;97917.78;4916697;28;102001;-84
2023/07/12 07:56:07;;;;;;;;;4.33;4.33;;;;;27.01;55.03;97923.16;4921935;28;102301;-82
2023/07/12 07:58:35;;;;;;;;;3.67;3.67;;;;;26.92;57.99;97931.47;4918830;28;103689;-84
2023/07/12 08:01:02;;;;;;;;;2.67;2.67;;;;;26.58;57.35;97903.59;4917967;28;109062;-84
2023/07/12 08:03:34;;;;;;;;;4.00;4.00;;;;;26.61;60.29;97937.03;4925530;28;102390;-83
2023/07/12 08:06:04;;;;;;;;;4.00;3.00;;;;;26.45;59.35;97910.91;4919605;28;102040;-82
2023/07/12 08:08:34;;;;;;;;;4.00;4.00;;;;;26.63;57.52;97912.59;4921480;28;102419;-82
2023/07/12 08:11:07;;;;;;;;;5.00;4.00;;;;;26.86;57.79;97915.28;4923108;28;102478;-84
2023/07/12 08:13:36;;;;;;;;;4.67;4.67;;;;;27.14;54.92;97916.66;4901093;28;102168;-82
2023/07/12 08:16:04;;;;;;;;;3.67;3.33;;;;;27.36;56.79;97915.66;4917401;28;102011;-84
2023/07/12 08:18:33;;;;;;;;;6.00;4.00;;;;;27.41;57.48;97888.56;4920819;28;102376;-81
2023/07/12 08:21:01;;;;;;;;;5.00;5.00;;;;;27.67;55.19;97904.41;4921732;28;104192;-81
2023/07/12 08:23:29;;;;;;;;;4.33;4.33;;;;;27.93;55.91;97911.53;4921802;28;106634;-84
2023/07/12 08:25:56;;;;;;;;;6.00;5.67;;;;;28.06;55.42;97901.34;4907097;28;104347;-80
2023/07/12 08:28:23;;;;;;;;;5.00;5.00;;;;;28.21;53.59;97900.84;4925871;28;102343;-84
2023/07/12 08:30:51;;;;;;;;;5.67;5.00;;;;;28.14;53.01;97903.34;4918917;28;104211;-82
2023/07/12 08:33:18;;;;;;;;;7.00;6.33;;;;;28.06;54.59;97908.88;4894131;28;102006;-86
2023/07/12 08:35:47;;;;;;;;;4.67;4.00;;;;;27.84;53.20;97910.75;4919524;28;104791;-85
2023/07/12 08:38:18;;;;;;;;;4.33;4.33;;;;;27.78;52.15;97914.03;4923251;28;102409;-81
2023/07/12 08:40:49;;;;;;;;;8.00;6.00;;;;;27.56;52.09;97914.22;4920082;28;104018;-81
2023/07/12 08:43:19;;;;;;;;;7.00;7.00;;;;;27.41;53.04;97921.88;4918929;28;102267;-81
2023/07/12 08:45:50;;;;;;;;;4.67;4.67;;;;;27.22;53.95;97918.59;4924588;28;103317;-81
2023/07/12 08:48:20;;;;;;;;;7.00;7.00;;;;;26.86;54.49;97899.47;4925016;28;102247;-79
2023/07/12 08:50:48;;;;;;;;;8.00;7.00;;;;;26.84;54.92;97923.91;4920857;28;104179;-81
2023/07/12 08:53:25;;;;;;;;;7.00;7.00;;;;;26.74;56.67;97934.50;4917505;28;102015;-82
2023/07/12 08:55:54;;;;;;;;;8.00;7.00;;;;;26.45;56.44;97919.22;4907483;28;102321;-80
2023/07/12 08:58:26;;;;;;;;;9.67;9.00;;;;;26.31;57.23;97937.91;4923152;28;102056;-79
2023/07/12 09:01:07;;;;;;;;;7.00;6.67;;;;;26.09;59.40;97935.16;4919791;28;104049;-81
2023/07/12 09:03:35;;;;;;;;;9.00;9.00;;;;;26.02;58.32;97945.91;4918016;28;102396;-82
2023/07/12 09:06:17;;;;;;;;;7.00;7.00;;;;;26.04;59.87;97954.69;4921606;28;102160;-81
2023/07/12 09:08:50;;;;;;;;;6.33;6.33;;;;;26.08;59.62;97956.50;4922882;28;106183;-80
2023/07/12 09:11:25;;;;;;;;;6.67;6.00;;;;;26.10;59.32;97947.91;4918774;28;109201;-80
2023/07/12 09:13:56;;;;;;;;;7.00;7.00;;;;;26.09;59.15;97946.25;4918406;28;102309;-81
2023/07/12 09:16:29;;;;;;;;;7.00;7.00;;;;;26.11;60.02;97930.13;4920748;28;105695;-81
2023/07/12 09:19:00;;;;;;;;;8.33;7.33;;;;;26.30;61.06;97927.97;4926459;28;102070;-81
2023/07/12 09:21:33;;;;;;;;;8.33;6.67;;;;;26.39;60.22;97930.75;4920532;28;104714;-85
2023/07/12 09:24:06;;;;;;;;;8.33;7.00;;;;;26.41;59.98;97934.03;4914309;28;102223;-81
2023/07/12 09:26:33;;;;;;;;;9.00;8.00;;;;;26.24;60.23;97922.88;4920712;28;102307;-83
2023/07/12 09:29:27;;;;;;;;;8.67;8.67;;;;;26.21;60.52;97935.41;4924570;28;102708;-81
2023/07/12 09:32:00;;;;;;;;;8.00;6.33;;;;;26.09;61.73;97940.72;4913989;28;107694;-81
2023/07/12 09:34:39;;;;;;;;;8.33;8.33;;;;;25.86;64.89;97930.78;4916848;28;102428;-82
2023/07/12 09:37:17;;;;;;;;;7.33;7.00;;;;;25.81;67.05;97950.31;4920725;28;102651;-81
2023/07/12 09:39:59;;;;;;;;;9.00;8.00;;;;;25.79;65.06;97958.94;4922404;28;103091;-81
2023/07/12 09:42:29;;;;;;;;;7.33;7.00;;;;;25.63;67.19;97921.69;4894339;28;107257;-81
2023/07/12 09:45:04;;;;;;;;;9.67;8.00;;;;;25.82;67.43;97927.03;4918577;28;102428;-82
2023/07/12 09:47:40;;;;;;;;;8.00;8.00;;;;;26.30;65.87;97950.13;4898915;28;102330;-81
2023/07/12 09:50:22;;;;;;;;;11.00;10.00;;;;;26.29;64.69;97926.34;4920296;28;102360;-80
2023/07/12 09:53:22;;;;;;;;;8.67;8.67;;;;;26.64;63.79;97952.25;4913965;28;108516;-81
2023/07/12 09:56:07;;;;;;;;;9.33;9.00;;;;;26.69;63.25;97948.50;4920201;28;102422;-83
2023/07/12 09:58:44;;;;;;;;;15.67;14.00;;;;;26.42;63.88;97927.38;4923513;28;102558;-79
2023/07/12 10:01:30;;;;;;;;;14.67;14.00;;;;;26.49;64.08;97933.25;4919356;28;102486;-80
2023/07/12 10:04:13;;;;;;;;;11.00;10.00;;;;;26.72;64.39;97928.44;4917670;28;108766;-79
2023/07/12 10:06:45;;;;;;;;;9.67;8.00;;;;;26.95;65.16;97918.91;4921232;28;102495;-81
2023/07/12 10:09:20;;;;;;;;;10.00;10.00;;;;;27.03;62.42;97887.56;4921743;28;102364;-82
2023/07/12 10:12:12;;;;;;;;;12.00;11.67;;;;;27.41;63.91;97909.94;4899973;28;102518;-81
2023/07/12 10:14:41;;;;;;;;;12.00;12.00;;;;;27.59;61.16;97917.16;4914159;28;108711;-81
2023/07/12 10:17:24;;;;;;;;;18.67;16.67;;;;;27.43;59.67;97914.03;4920389;28;102566;-80
2023/07/12 10:19:54;;;;;;;;;14.00;13.00;;;;;27.66;59.47;97905.53;4916702;28;102091;-81
2023/07/12 10:22:43;;;;;;;;;11.33;10.00;;;;;27.79;58.75;97904.53;4921038;28;102682;-82
2023/07/12 10:25:19;;;;;;;;;15.33;15.00;;;;;27.71;57.79;97913.69;4918363;28;108976;-80
2023/07/12 10:27:59;;;;;;;;;12.00;11.00;;;;;27.94;58.19;97912.34;4916239;28;102049;-85
2023/07/12 10:30:29;;;;;;;;;10.00;10.00;;;;;27.86;55.60;97904.84;4916968;28;102258;-82
2023/07/12 10:33:22;;;;;;;;;11.67;11.67;;;;;27.87;55.84;97900.94;4902554;28;101978;-80
2023/07/12 10:35:55;;;;;;;;;12.67;12.00;;;;;27.57;54.86;97865.84;4914538;28;108426;-80
2023/07/12 10:38:23;;;;;;;;;11.33;10.00;;;;;28.15;56.98;97918.03;4916783;28;102418;-81
2023/07/12 10:40:57;;;;;;;;;11.00;10.67;;;;;28.09;53.37;97922.94;4918383;28;102724;-79
2023/07/12 10:43:33;;;;;;;;;14.00;13.33;;;;;28.16;54.04;97919.69;4910575;28;102025;-81
2023/07/12 10:46:05;;;;;;;;;12.00;10.00;;;;;28.36;53.18;97899.50;4913960;28;104049;-82
2023/07/12 10:48:33;;;;;;;;;11.00;10.33;;;;;28.52;52.98;97906.13;4919189;28;106329;-82
2023/07/12 10:51:31;;;;;;;;;14.00;14.00;;;;;28.61;53.96;97903.28;4891853;28;106255;-80
2023/07/12 10:53:58;;;;;;;;;13.33;12.00;;;;;28.52;53.17;97894.16;4919616;28;102551;-86
2023/07/12 10:56:52;;;;;;;;;13.67;13.67;;;;;28.29;53.56;97908.34;4892109;28;104309;-79
2023/07/12 10:59:30;;;;;;;;;11.33;11.33;;;;;28.27;54.86;97899.53;4914141;28;106563;-81
2023/07/12 11:02:04;;;;;;;;;13.67;13.67;;;;;27.74;52.01;97921.41;4916961;28;104733;-81
2023/07/12 11:04:34;;;;;;;;;12.67;12.33;;;;;27.46;52.78;97932.81;4919983;28;102395;-83
2023/07/12 11:07:08;;;;;;;;;11.00;11.00;;;;;27.58;53.46;97929.41;4920049;28;103643;-80
2023/07/12 11:12:31;;;;;;;;;11.00;10.33;;;;;27.20;55.00;97931.97;4917233;28;102452;-80
2023/07/12 11:15:27;;;;;;;;;10.33;10.00;;;;;27.30;53.24;97928.88;4915000;28;101948;-80
2023/07/12 11:17:55;;;;;;;;;8.00;7.67;;;;;27.47;54.68;97936.41;4922186;28;107365;-87
2023/07/12 11:20:30;;;;;;;;;9.00;8.00;;;;;27.45;53.57;97931.19;4922325;28;102514;-82
2023/07/12 11:23:01;;;;;;;;;8.00;7.00;;;;;27.44;52.74;97932.31;4903998;28;106092;-86
2023/07/12 11:25:43;;;;;;;;;8.33;8.00;;;;;27.16;53.09;97942.09;4918929;28;102245;-81
2023/07/12 11:28:28;;;;;;;;;8.33;7.67;;;;;26.99;52.77;97944.84;4915462;28;109231;-82
2023/07/12 11:31:25;;;;;;;;;8.67;8.67;;;;;26.94;53.76;97939.47;4919999;28;102049;-83
2023/07/12 11:34:01;;;;;;;;;6.33;6.00;;;;;26.93;53.18;97940.59;4897162;28;102363;-83
2023/07/12 11:36:33;;;;;;;;;6.33;6.33;;;;;26.75;53.11;97927.81;4926956;28;102373;-82